Details From SKNV - BENITO SALAS
To SKRG - JOSE MARIA CORDOVA
Flight Number -
Tags generated
Created
Modified
Stats Distance 194 nm / 359 km
Max Altitude 22,000 ft / 6,706 m
Waypoints 3
Social Downloads 0
Likes 0
Share VATSIM

Download

Looking for another format? Having issues loading an existing format? Contact us
Advertisement - Login to hide

Notes

Basic altitude profile: - Ascent Rate: 2500ft/min - Ascent Speed: 250kts - Cruise Altitude: 35000ft - Cruise Speed: 420kts - Descent Rate: 1500ft/min - Descent Speed: 250kts Options: - Use NATs: yes - Use PACOTS: yes - Use low airways: yes - Use high airways: yes

Route

SKNV DAGUR SKRG

ID Type Via Altitude Latitude Longitude Leg Dist Tot Dist Heading (true) Name
O SKNV APT - 0 ft / 0 m 2.95015˚ -75.29400˚ - 0 nm - BENITO SALAS
DAGUR FIX - 22,000 ft / 6,706 m 4.45278˚ -75.46333˚ 90 nm 90 nm 354° / 354° -
O SKRG APT - 0 ft / 0 m 6.16453˚ -75.42312˚ 102 nm 193 nm 1° / 1° JOSE MARIA CORDOVA

Altitude Profile

Advertisement - Login to hide

Weather


0- 5 10 15 20 25 30 35+ Temperature / ° C

Clouds and Precipitation
Forecast for 2017-12-13 06:00 UTC. Updated 31 minutes ago

Ground ~20,000 ft ~40,000 ft Winds

SKNV

Details ICAO SKNV (NVA)
Name BENITO SALAS
Region Colombia
Timezone America/Bogota (UTC-5.0)
Stats Elevation 1,464 ft / 446 m (AMSL)
Location 2.950152° -75.293999°
Runways 1
Magnetic Variation 6.230° W

METAR

SKNV 130100Z 06003KT 030V110 6000 VCSH SCT010 BKN100 23/22 A2994 RMK VCSH/E

Decode

TAF

Not found

Departure Runways

ID Width Length Bearing (true) Bearing (mag) Surface Threshold Offset Overrun Length
02 131 ft / 40 m 5,912 ft / 1,802 m 14.16° 20.39° Asphalt 395 ft / 120 m 0 ft / 0 m
20 131 ft / 40 m 5,912 ft / 1,802 m 194.16° 200.39° Asphalt 0 ft / 0 m 190 ft / 58 m

SKRG

Details ICAO SKRG (MDE)
Name JOSE MARIA CORDOVA
Region Colombia
Timezone America/Bogota (UTC-5.0)
Stats Elevation 6,955 ft / 2,120 m (AMSL)
Location 6.164532° -75.423119°
Runways 1
Magnetic Variation 6.630° W

METAR

SKRG 130100Z 27004KT 5000 RA SCT012CB BKN015 15/14 A3031 RMK CB SW/W

Decode

TAF

Not found

Destination Runways

ID Width Length Bearing (true) Bearing (mag) Surface Threshold Offset Overrun Length
18 148 ft / 45 m 11,547 ft / 3,520 m 179.62° 186.25° Asphalt 0 ft / 0 m 98 ft / 30 m
36 148 ft / 45 m 11,547 ft / 3,520 m 359.62° 6.25° Asphalt 0 ft / 0 m 98 ft / 30 m

Approach Navaids

Runway Type Ident Frequency Range Bearing (true) Bearing (mag) Slope Elevation
36 Localiser IMDE 110.90 MHz 18 nm / 33 km 359.62° 6.25° - 6,955 ft / 2,120 m (AMSL)
36 Glidescope IMDE 110.90 MHz 10 nm / 19 km 359.62° 6.25° 3.00° 6,955 ft / 2,120 m (AMSL)

Popular Alternatives